Time;durP1;ratioP1;P1;durP2;ratioP2;P2;SDS_P1;SDS_P2;PMS_P1;PMS_P2;Temp;Humidity;BMP_temperature;BMP_pressure;BME280_temperature;BME280_humidity;BME280_pressure;Samples;Min_cycle;Max_cycle;Signal;HPM_P1;HPM_P2
2021/09/10 00:01:56;;;;;;;11.35;7.43;;;16.20;95.90;;;;;;5006306;28;20101;-66
2021/09/10 00:04:22;;;;;;;10.65;7.32;;;16.20;95.90;;;;;;5008012;28;20495;-66
2021/09/10 00:06:50;;;;;;;14.50;9.25;;;16.10;96.30;;;;;;5015378;28;20033;-66
2021/09/10 00:09:16;;;;;;;12.40;8.52;;;16.00;96.50;;;;;;5013953;28;20061;-66
2021/09/10 00:11:42;;;;;;;10.88;8.05;;;16.00;96.60;;;;;;5012808;28;20014;-66
2021/09/10 00:14:10;;;;;;;13.15;8.63;;;15.80;97.00;;;;;;5014036;28;20314;-66
2021/09/10 00:16:36;;;;;;;11.18;8.60;;;15.60;97.50;;;;;;5015917;28;20062;-66
2021/09/10 00:19:02;;;;;;;11.35;8.30;;;15.40;97.90;;;;;;5013312;28;20030;-66
2021/09/10 00:21:28;;;;;;;13.13;8.25;;;15.30;98.00;;;;;;5013747;28;20025;-66
2021/09/10 00:23:55;;;;;;;11.63;8.20;;;15.30;98.00;;;;;;5014880;28;20041;-66
2021/09/10 00:26:21;;;;;;;11.02;8.25;;;15.30;98.00;;;;;;5015084;28;20022;-66
2021/09/10 00:28:47;;;;;;;12.88;9.40;;;15.30;98.00;;;;;;5015854;28;20433;-66
2021/09/10 00:31:13;;;;;;;12.48;8.77;;;15.30;98.00;;;;;;5011123;28;20431;-66
2021/09/10 00:33:39;;;;;;;15.10;8.55;;;15.30;98.00;;;;;;5014073;28;20495;-66
2021/09/10 00:36:05;;;;;;;12.50;8.20;;;15.30;98.00;;;;;;5015845;28;20034;-66
2021/09/10 00:38:31;;;;;;;13.13;8.88;;;15.30;98.00;;;;;;5014248;28;20044;-66
2021/09/10 00:40:58;;;;;;;12.95;8.63;;;15.30;97.90;;;;;;5015202;28;20037;-66
2021/09/10 00:43:24;;;;;;;13.00;8.70;;;15.30;97.90;;;;;;5014642;28;20077;-66
2021/09/10 00:45:51;;;;;;;11.45;8.50;;;15.30;97.80;;;;;;5015189;28;20033;-66
2021/09/10 00:48:20;;;;;;;14.57;8.95;;;15.40;97.60;;;;;;5015522;28;20092;-66
2021/09/10 00:50:47;;;;;;;13.70;8.63;;;15.40;97.60;;;;;;5006720;28;20045;-66
2021/09/10 00:53:14;;;;;;;13.80;8.95;;;15.40;97.80;;;;;;5014127;28;20030;-66
2021/09/10 00:55:47;;;;;;;13.77;8.80;;;15.30;97.90;;;;;;5013751;28;20026;-66
2021/09/10 00:58:14;;;;;;;13.98;9.63;;;15.20;98.00;;;;;;5016317;28;20022;-66
2021/09/10 01:00:40;;;;;;;13.60;9.48;;;15.10;98.00;;;;;;4995964;28;20034;-66
2021/09/10 01:03:08;;;;;;;14.50;9.23;;;15.10;98.00;;;;;;5013383;28;20026;-66
2021/09/10 01:05:35;;;;;;;14.23;9.15;;;15.10;98.00;;;;;;5007687;28;20030;-66
2021/09/10 01:08:02;;;;;;;14.23;9.02;;;15.10;98.00;;;;;;5014920;28;20097;-67
2021/09/10 01:10:29;;;;;;;13.63;9.38;;;15.20;98.00;;;;;;5011312;28;20026;-66
2021/09/10 01:12:57;;;;;;;13.70;9.20;;;15.20;98.00;;;;;;5006772;28;20494;-66
2021/09/10 01:15:24;;;;;;;12.05;8.45;;;15.30;98.00;;;;;;5003225;28;20327;-66
2021/09/10 01:17:50;;;;;;;15.57;9.27;;;15.30;98.00;;;;;;5014879;28;20344;-66
2021/09/10 01:20:16;;;;;;;14.23;9.25;;;15.30;98.00;;;;;;5012148;28;20033;-66
2021/09/10 01:22:42;;;;;;;13.32;8.15;;;15.30;97.80;;;;;;5014269;28;20022;-66
2021/09/10 01:25:11;;;;;;;12.52;8.52;;;15.40;97.50;;;;;;5014354;28;20022;-66
2021/09/10 01:27:39;;;;;;;12.70;8.90;;;15.40;97.40;;;;;;5012196;28;20026;-66
2021/09/10 01:30:06;;;;;;;13.13;8.93;;;15.40;97.50;;;;;;5014541;28;20037;-66
2021/09/10 01:32:32;;;;;;;12.07;8.70;;;15.30;97.70;;;;;;5008426;28;20014;-66
2021/09/10 01:34:58;;;;;;;13.93;9.65;;;15.20;97.90;;;;;;5013698;28;20096;-66
2021/09/10 01:37:24;;;;;;;12.80;9.00;;;15.10;98.00;;;;;;5014665;28;20101;-66
2021/09/10 01:39:50;;;;;;;16.23;9.75;;;15.00;98.00;;;;;;5013949;28;20053;-66
2021/09/10 01:42:16;;;;;;;12.80;9.13;;;14.90;98.00;;;;;;5014569;28;20038;-66
2021/09/10 01:44:42;;;;;;;16.70;10.07;;;14.90;98.00;;;;;;5014366;28;20323;-66
2021/09/10 01:47:08;;;;;;;13.40;9.65;;;14.90;98.00;;;;;;5015638;28;20033;-66
2021/09/10 01:49:34;;;;;;;14.88;9.57;;;14.80;98.00;;;;;;5009818;28;20030;-66
2021/09/10 01:52:01;;;;;;;13.90;9.40;;;14.80;98.00;;;;;;5006926;28;20048;-66
2021/09/10 01:54:28;;;;;;;14.35;9.48;;;14.70;98.00;;;;;;5013922;28;20030;-66
2021/09/10 01:56:54;;;;;;;14.57;10.23;;;14.70;98.00;;;;;;5013272;28;20037;-66
2021/09/10 01:59:20;;;;;;;18.50;9.93;;;14.60;98.00;;;;;;5012935;28;20022;-66
2021/09/10 02:01:46;;;;;;;11.68;8.65;;;14.60;98.00;;;;;;5013645;28;20032;-66
2021/09/10 02:04:12;;;;;;;15.13;10.55;;;14.60;98.00;;;;;;5010479;28;20041;-66
2021/09/10 02:06:38;;;;;;;13.82;8.88;;;14.50;98.00;;;;;;5015522;28;20034;-66
2021/09/10 02:09:04;;;;;;;12.73;9.00;;;14.50;98.00;;;;;;5012407;28;20121;-66
2021/09/10 02:11:30;;;;;;;13.45;9.73;;;14.50;98.00;;;;;;5015077;28;20111;-66
2021/09/10 02:13:55;;;;;;;14.82;9.60;;;14.40;98.00;;;;;;5015323;28;20026;-66
2021/09/10 02:16:21;;;;;;;12.75;9.55;;;14.40;98.00;;;;;;5014524;28;20101;-67
2021/09/10 02:18:48;;;;;;;14.23;9.50;;;14.40;98.00;;;;;;5003811;28;20375;-66
2021/09/10 02:21:13;;;;;;;13.68;9.35;;;14.30;98.00;;;;;;5012343;28;20060;-66
2021/09/10 02:23:40;;;;;;;13.88;9.40;;;14.20;98.00;;;;;;5015825;28;20109;-66
2021/09/10 02:26:08;;;;;;;14.57;9.57;;;14.30;98.00;;;;;;5019176;28;20068;-66
2021/09/10 02:28:34;;;;;;;12.88;9.80;;;14.50;98.00;;;;;;5017678;28;20038;-66
2021/09/10 02:31:00;;;;;;;16.20;10.00;;;14.60;98.00;;;;;;5017455;28;20034;-66
2021/09/10 02:33:27;;;;;;;13.23;9.55;;;14.70;98.00;;;;;;5017523;28;20022;-66
2021/09/10 02:35:56;;;;;;;12.98;9.45;;;14.80;98.00;;;;;;5017850;28;20064;-66
2021/09/10 02:38:23;;;;;;;14.32;9.73;;;14.90;98.00;;;;;;5014087;28;20089;-66
2021/09/10 02:40:49;;;;;;;16.08;9.90;;;15.00;98.00;;;;;;5017602;28;20061;-66
2021/09/10 02:43:16;;;;;;;14.13;9.77;;;15.00;98.00;;;;;;5017989;28;20025;-66
2021/09/10 02:45:43;;;;;;;12.75;9.57;;;15.00;98.00;;;;;;5017949;28;20169;-66
2021/09/10 02:48:10;;;;;;;13.57;9.48;;;15.00;98.00;;;;;;5007484;28;20026;-66
2021/09/10 02:50:36;;;;;;;13.50;9.55;;;14.90;98.00;;;;;;5011992;28;20112;-66
2021/09/10 02:53:02;;;;;;;14.73;9.95;;;14.90;98.00;;;;;;5016554;28;20026;-66
2021/09/10 02:55:28;;;;;;;15.55;10.07;;;14.90;98.00;;;;;;5016724;28;20045;-66
2021/09/10 02:57:54;;;;;;;15.50;10.07;;;14.90;98.00;;;;;;5017639;28;20018;-66
2021/09/10 03:00:20;;;;;;;16.35;10.55;;;14.80;98.00;;;;;;5016878;28;20032;-66
2021/09/10 03:02:46;;;;;;;17.33;9.27;;;14.80;98.00;;;;;;5017877;28;20088;-66
2021/09/10 03:05:13;;;;;;;12.90;9.75;;;14.80;98.00;;;;;;5017729;28;20026;-66
2021/09/10 03:07:39;;;;;;;15.15;9.70;;;14.80;98.00;;;;;;5017452;28;20113;-66
2021/09/10 03:10:07;;;;;;;16.45;10.20;;;14.80;98.00;;;;;;5015942;28;20033;-66
2021/09/10 03:12:37;;;;;;;12.43;9.30;;;14.80;98.00;;;;;;5015586;28;20030;-66
2021/09/10 03:15:05;;;;;;;14.13;9.45;;;14.70;98.00;;;;;;5017056;28;20446;-66
2021/09/10 03:17:31;;;;;;;13.30;10.00;;;14.60;98.00;;;;;;5016213;28;20026;-66
2021/09/10 03:19:57;;;;;;;16.98;9.95;;;14.60;98.00;;;;;;5016858;28;20419;-66
2021/09/10 03:22:23;;;;;;;15.20;9.70;;;14.50;98.00;;;;;;5015193;28;20034;-66
2021/09/10 03:24:49;;;;;;;13.82;9.73;;;14.50;98.00;;;;;;5014975;28;20032;-66
2021/09/10 03:27:15;;;;;;;12.75;9.40;;;14.40;98.00;;;;;;5017157;28;20037;-66
2021/09/10 03:29:41;;;;;;;14.95;10.13;;;14.40;98.00;;;;;;5015554;28;20370;-66
2021/09/10 03:32:07;;;;;;;15.38;10.60;;;14.30;98.00;;;;;;5010781;28;20026;-66
2021/09/10 03:34:33;;;;;;;13.63;9.70;;;14.20;98.00;;;;;;5031852;28;20022;-66
2021/09/10 03:36:59;;;;;;;13.50;9.15;;;14.20;98.00;;;;;;5015236;28;20064;-66
2021/09/10 03:39:25;;;;;;;13.70;9.40;;;14.20;98.00;;;;;;5014261;28;20053;-66
2021/09/10 03:41:52;;;;;;;13.82;9.43;;;14.20;98.00;;;;;;5017037;28;20419;-66
2021/09/10 03:44:18;;;;;;;12.77;8.35;;;14.30;98.00;;;;;;5016650;28;20042;-66
2021/09/10 03:46:44;;;;;;;12.18;7.95;;;14.40;98.00;;;;;;5017213;28;20032;-66
2021/09/10 03:49:10;;;;;;;13.32;9.23;;;14.40;98.00;;;;;;5010170;28;20383;-66
2021/09/10 03:51:36;;;;;;;10.75;7.68;;;14.60;98.00;;;;;;5008417;28;20030;-66
2021/09/10 03:54:02;;;;;;;12.77;8.13;;;14.80;98.00;;;;;;5013390;28;20037;-66
2021/09/10 03:56:28;;;;;;;13.38;8.10;;;15.00;98.00;;;;;;5013969;28;20100;-67
2021/09/10 03:58:53;;;;;;;10.43;7.03;;;15.20;97.60;;;;;;5014931;28;20026;-66
2021/09/10 04:01:19;;;;;;;11.30;7.55;;;15.30;97.10;;;;;;5016026;28;20057;-66
2021/09/10 04:03:45;;;;;;;14.95;7.50;;;15.40;96.80;;;;;;5017486;28;20128;-66
2021/09/10 04:06:11;;;;;;;10.07;6.93;;;15.40;96.80;;;;;;5016374;28;20041;-66
2021/09/10 04:08:37;;;;;;;11.32;6.95;;;15.50;96.30;;;;;;5013541;28;20029;-66
2021/09/10 04:11:03;;;;;;;9.07;6.40;;;15.60;96.10;;;;;;5015939;28;20034;-66
2021/09/10 04:13:29;;;;;;;11.88;7.82;;;15.60;96.00;;;;;;5014516;28;20438;-66
2021/09/10 04:15:55;;;;;;;11.50;6.88;;;15.60;95.70;;;;;;5016004;28;20048;-66
2021/09/10 04:18:21;;;;;;;12.43;6.75;;;15.70;95.50;;;;;;5016008;28;20022;-66
2021/09/10 04:20:47;;;;;;;9.93;6.60;;;15.80;95.40;;;;;;5013928;28;20034;-66
2021/09/10 04:23:13;;;;;;;12.38;7.20;;;15.80;95.30;;;;;;5013823;28;20026;-66
2021/09/10 04:25:39;;;;;;;11.55;6.88;;;15.80;94.80;;;;;;5015720;28;20036;-66
2021/09/10 04:28:07;;;;;;;11.90;7.78;;;15.80;95.00;;;;;;5016404;28;20030;-66
2021/09/10 04:30:33;;;;;;;10.52;7.25;;;15.80;94.70;;;;;;5013744;28;20018;-66
2021/09/10 04:32:59;;;;;;;12.00;6.95;;;15.80;94.80;;;;;;5006415;28;20038;-66
2021/09/10 04:35:25;;;;;;;9.98;6.68;;;15.70;95.00;;;;;;5014997;28;20022;-66
2021/09/10 04:37:51;;;;;;;9.93;6.60;;;15.70;94.80;;;;;;5016093;28;20018;-66
2021/09/10 04:40:18;;;;;;;10.95;7.22;;;15.80;94.70;;;;;;5012819;28;20057;-66
2021/09/10 04:42:45;;;;;;;10.88;6.90;;;15.80;94.60;;;;;;5014852;28;20113;-66
2021/09/10 04:45:11;;;;;;;11.95;7.30;;;16.00;94.20;;;;;;5015393;28;20026;-66
2021/09/10 04:47:37;;;;;;;10.43;6.38;;;16.10;94.00;;;;;;5014532;28;20036;-66
2021/09/10 04:50:03;;;;;;;12.77;7.28;;;16.10;94.20;;;;;;5015226;28;20060;-66
2021/09/10 04:52:29;;;;;;;10.60;6.70;;;16.20;93.70;;;;;;5008468;28;20108;-66
2021/09/10 04:54:55;;;;;;;11.55;7.45;;;16.20;93.80;;;;;;5012925;28;20439;-66
2021/09/10 04:57:21;;;;;;;10.38;6.88;;;16.20;93.70;;;;;;5013945;28;20030;-66
2021/09/10 04:59:47;;;;;;;9.38;6.65;;;16.30;93.60;;;;;;5015643;28;20026;-66
2021/09/10 05:02:15;;;;;;;10.00;6.90;;;16.30;93.40;;;;;;5008331;28;20084;-66
2021/09/10 05:04:41;;;;;;;9.00;6.38;;;16.40;93.30;;;;;;5015056;28;20030;-66
2021/09/10 05:07:06;;;;;;;9.35;6.63;;;16.50;92.80;;;;;;5015763;28;20079;-66
2021/09/10 05:09:34;;;;;;;9.18;6.63;;;16.70;92.40;;;;;;5010171;28;20374;-66
2021/09/10 05:11:59;;;;;;;10.20;6.10;;;16.80;91.80;;;;;;4997321;28;20088;-67
2021/09/10 05:14:26;;;;;;;9.95;6.70;;;17.10;90.50;;;;;;5012910;28;20026;-66
2021/09/10 05:16:52;;;;;;;9.60;6.20;;;17.20;90.30;;;;;;5015280;28;20366;-66
2021/09/10 05:19:17;;;;;;;10.52;6.80;;;17.40;90.20;;;;;;5013293;28;20026;-67
2021/09/10 05:21:46;;;;;;;8.95;6.30;;;17.50;90.00;;;;;;5012328;28;20018;-66
2021/09/10 05:24:12;;;;;;;10.70;6.22;;;17.50;90.20;;;;;;5013696;28;20077;-66
2021/09/10 05:26:38;;;;;;;11.93;6.30;;;17.60;89.90;;;;;;5016275;28;20026;-66
2021/09/10 05:29:04;;;;;;;10.57;6.13;;;17.60;90.30;;;;;;5011123;28;20112;-66
2021/09/10 05:31:30;;;;;;;9.18;6.00;;;17.70;89.40;;;;;;5016968;28;20026;-64
2021/09/10 05:33:55;;;;;;;11.85;6.55;;;17.70;89.40;;;;;;5011316;28;20038;-66
2021/09/10 05:36:21;;;;;;;10.32;6.30;;;17.70;90.30;;;;;;5013424;28;20033;-66
2021/09/10 05:38:48;;;;;;;9.57;6.00;;;17.50;91.00;;;;;;5010997;28;20042;-66
2021/09/10 05:41:14;;;;;;;10.65;6.22;;;17.50;90.70;;;;;;5009521;28;20022;-66
2021/09/10 05:43:40;;;;;;;9.13;5.95;;;17.50;90.60;;;;;;5011181;28;20049;-66
2021/09/10 05:46:05;;;;;;;9.80;6.55;;;17.50;90.60;;;;;;5008836;28;20437;-66
2021/09/10 05:48:31;;;;;;;10.13;6.82;;;17.50;90.80;;;;;;5008245;28;20037;-66
2021/09/10 05:50:57;;;;;;;10.02;6.55;;;17.50;90.60;;;;;;5011253;28;20033;-66
2021/09/10 05:53:23;;;;;;;8.80;6.32;;;17.60;90.50;;;;;;5012133;28;20029;-66
2021/09/10 05:55:49;;;;;;;9.55;6.38;;;17.60;91.00;;;;;;5005714;28;20093;-66
2021/09/10 05:58:15;;;;;;;11.18;6.80;;;17.70;90.60;;;;;;5016118;28;20365;-66
2021/09/10 06:00:44;;;;;;;10.07;6.75;;;17.80;90.30;;;;;;5015603;28;20488;-66
2021/09/10 06:03:10;;;;;;;10.90;6.80;;;17.90;90.20;;;;;;5011174;28;20029;-66
2021/09/10 06:05:35;;;;;;;10.27;6.60;;;18.00;89.60;;;;;;5013832;28;20030;-66
2021/09/10 06:08:02;;;;;;;9.95;6.40;;;18.20;89.10;;;;;;5013859;28;20022;-66
2021/09/10 06:10:28;;;;;;;11.15;6.50;;;18.30;89.00;;;;;;5013069;28;20033;-66
2021/09/10 06:12:54;;;;;;;12.25;7.07;;;18.40;88.00;;;;;;5015806;28;20025;-66
2021/09/10 06:15:19;;;;;;;9.90;6.88;;;18.60;88.20;;;;;;5013430;28;20026;-66
2021/09/10 06:17:45;;;;;;;8.68;5.85;;;18.70;87.80;;;;;;5012432;28;20026;-66
2021/09/10 06:20:12;;;;;;;9.18;5.93;;;18.80;87.60;;;;;;5014286;28;20037;-66
2021/09/10 06:22:38;;;;;;;11.05;6.50;;;18.90;86.80;;;;;;5015978;28;20427;-66
2021/09/10 06:25:06;;;;;;;11.07;7.15;;;19.10;86.80;;;;;;5006744;28;20037;-66
2021/09/10 06:27:33;;;;;;;11.63;6.43;;;19.30;85.80;;;;;;5017475;28;20026;-66
2021/09/10 06:29:59;;;;;;;10.82;6.25;;;19.30;85.80;;;;;;5017832;28;20030;-66
2021/09/10 06:32:25;;;;;;;9.68;6.25;;;19.40;85.60;;;;;;5016103;28;20032;-66
2021/09/10 06:34:54;;;;;;;8.57;6.20;;;19.50;85.20;;;;;;5014470;28;20056;-66
2021/09/10 06:37:20;;;;;;;8.98;6.07;;;19.60;84.20;;;;;;5017286;28;20100;-66
2021/09/10 06:39:48;;;;;;;9.10;6.43;;;19.80;84.80;;;;;;5013191;28;20045;-66
2021/09/10 06:42:14;;;;;;;12.45;6.40;;;20.10;84.60;;;;;;5018843;28;20446;-66
2021/09/10 06:44:40;;;;;;;9.30;5.88;;;20.50;82.60;;;;;;5017746;28;20030;-66
2021/09/10 06:47:07;;;;;;;9.60;6.10;;;20.80;81.80;;;;;;5017090;28;20049;-66
2021/09/10 06:49:33;;;;;;;10.07;5.85;;;21.00;81.70;;;;;;5018182;28;20030;-66
2021/09/10 06:51:59;;;;;;;8.43;5.78;;;21.00;81.70;;;;;;5013790;28;20096;-66
2021/09/10 06:54:25;;;;;;;9.70;5.47;;;20.90;81.70;;;;;;5012195;28;20386;-66
2021/09/10 06:56:51;;;;;;;9.10;6.28;;;20.80;81.30;;;;;;5017470;28;20021;-66
2021/09/10 06:59:19;;;;;;;9.52;6.18;;;20.70;82.90;;;;;;5010432;28;20447;-66
2021/09/10 07:01:46;;;;;;;9.13;5.68;;;20.60;82.30;;;;;;5015069;28;20030;-66
2021/09/10 07:04:12;;;;;;;8.00;5.35;;;20.50;83.20;;;;;;5013273;28;20026;-66
2021/09/10 07:06:38;;;;;;;8.18;5.40;;;20.50;83.10;;;;;;5013785;28;20028;-66
2021/09/10 07:09:04;;;;;;;9.10;6.07;;;20.80;83.20;;;;;;5015289;28;20411;-66
2021/09/10 07:11:32;;;;;;;9.88;5.60;;;21.00;82.40;;;;;;5018514;28;20044;-66
2021/09/10 07:14:03;;;;;;;9.90;5.63;;;21.10;81.80;;;;;;5016633;28;20322;-66
2021/09/10 07:16:30;;;;;;;13.88;6.13;;;21.20;81.70;;;;;;5017028;28;20105;-66
2021/09/10 07:18:56;;;;;;;9.77;5.95;;;21.50;80.80;;;;;;5016857;28;20037;-66
2021/09/10 07:21:22;;;;;;;12.88;6.80;;;21.60;80.40;;;;;;5010642;28;20112;-66
2021/09/10 07:23:49;;;;;;;9.52;6.00;;;21.70;79.90;;;;;;5012189;28;20037;-66
2021/09/10 07:26:16;;;;;;;14.23;7.03;;;21.90;78.80;;;;;;5012737;28;20095;-66
2021/09/10 07:28:43;;;;;;;15.10;6.40;;;22.20;78.40;;;;;;5012398;28;20037;-66
2021/09/10 07:31:09;;;;;;;8.60;5.28;;;22.20;78.40;;;;;;5011705;28;20127;-66
2021/09/10 07:33:37;;;;;;;9.50;5.70;;;22.20;77.50;;;;;;5012078;28;20030;-66
2021/09/10 07:36:06;;;;;;;7.03;4.75;;;21.90;77.50;;;;;;5012500;28;21124;-66
2021/09/10 07:38:33;;;;;;;9.02;5.60;;;22.00;78.70;;;;;;5008457;28;20029;-66
2021/09/10 07:41:00;;;;;;;8.07;5.28;;;22.10;78.00;;;;;;5011356;28;20041;-66
2021/09/10 07:43:26;;;;;;;8.82;5.50;;;21.60;79.60;;;;;;5014966;28;20132;-66
2021/09/10 07:45:52;;;;;;;9.60;5.38;;;21.90;79.80;;;;;;5017018;28;20057;-66
2021/09/10 07:48:18;;;;;;;8.63;5.78;;;22.20;79.00;;;;;;5006329;28;20127;-65
2021/09/10 07:50:43;;;;;;;7.88;4.90;;;22.40;79.00;;;;;;5013210;28;20434;-65
2021/09/10 07:53:09;;;;;;;8.43;5.20;;;22.70;77.00;;;;;;5008623;28;20116;-65
2021/09/10 07:55:37;;;;;;;9.73;5.72;;;23.20;76.60;;;;;;5014662;28;20054;-65
2021/09/10 07:58:04;;;;;;;8.82;5.50;;;23.10;77.20;;;;;;5013034;28;20056;-65
2021/09/10 08:00:30;;;;;;;9.43;5.43;;;23.20;76.90;;;;;;5011763;28;20065;-65
2021/09/10 08:02:57;;;;;;;8.32;5.13;;;23.40;75.50;;;;;;5015014;28;20026;-65
2021/09/10 08:05:23;;;;;;;8.40;5.60;;;23.70;76.20;;;;;;5015937;28;20021;-66
2021/09/10 08:07:49;;;;;;;8.75;5.15;;;24.20;74.40;;;;;;5008727;28;20041;-66
2021/09/10 08:10:16;;;;;;;8.15;5.68;;;24.20;73.50;;;;;;5011958;28;20045;-66
2021/09/10 08:12:45;;;;;;;10.07;5.43;;;24.70;72.60;;;;;;5008427;28;20445;-66
2021/09/10 08:15:12;;;;;;;8.20;4.88;;;25.40;72.00;;;;;;5012055;28;20082;-66
2021/09/10 08:17:39;;;;;;;9.13;4.95;;;26.40;69.80;;;;;;5015719;28;20113;-66
2021/09/10 08:20:07;;;;;;;9.25;5.72;;;27.00;68.30;;;;;;5015203;28;20026;-66
2021/09/10 08:22:34;;;;;;;10.23;5.40;;;26.40;67.90;;;;;;5010731;28;20022;-66
2021/09/10 08:25:02;;;;;;;8.60;5.25;;;26.00;69.10;;;;;;5004212;28;20112;-65
2021/09/10 08:27:29;;;;;;;7.20;5.10;;;26.20;68.20;;;;;;5016302;28;20030;-66
2021/09/10 08:29:56;;;;;;;9.35;4.70;;;25.80;67.80;;;;;;5014757;28;20152;-66
2021/09/10 08:32:23;;;;;;;7.60;5.28;;;26.10;68.80;;;;;;5015230;28;20034;-66
2021/09/10 08:34:49;;;;;;;8.52;5.15;;;26.40;67.80;;;;;;5015617;28;20093;-66
2021/09/10 08:37:15;;;;;;;7.80;4.75;;;27.30;66.60;;;;;;5016520;28;20482;-67
2021/09/10 08:39:41;;;;;;;7.30;4.85;;;27.30;64.70;;;;;;5013992;28;20129;-66
2021/09/10 08:42:08;;;;;;;7.68;5.00;;;26.40;65.90;;;;;;5014310;28;20030;-67
2021/09/10 08:44:37;;;;;;;9.00;5.05;;;25.70;68.10;;;;;;5015809;28;20034;-66
2021/09/10 08:47:03;;;;;;;8.80;5.50;;;24.50;70.80;;;;;;5013029;28;20029;-66
2021/09/10 08:49:29;;;;;;;7.88;5.20;;;23.60;72.20;;;;;;5005373;28;20025;-66
2021/09/10 08:51:57;;;;;;;8.10;5.80;;;22.70;74.40;;;;;;5006988;28;20049;-66
2021/09/10 08:54:23;;;;;;;8.55;6.25;;;22.40;76.30;;;;;;5013837;28;20442;-66
2021/09/10 08:56:51;;;;;;;9.52;6.18;;;22.20;76.40;;;;;;5014140;28;20095;-65
2021/09/10 08:59:18;;;;;;;9.32;6.13;;;22.20;77.30;;;;;;5016643;28;20029;-65
2021/09/10 09:01:49;;;;;;;9.57;5.80;;;22.50;75.90;;;;;;5014852;28;20049;-65
2021/09/10 09:04:16;;;;;;;10.65;5.93;;;22.40;76.00;;;;;;5004269;28;20084;-66
2021/09/10 09:06:41;;;;;;;12.80;6.05;;;22.50;77.00;;;;;;5014274;28;20057;-66
2021/09/10 09:09:07;;;;;;;11.43;6.70;;;22.80;76.80;;;;;;5015104;28;20350;-65
2021/09/10 09:11:33;;;;;;;10.43;6.60;;;23.10;75.40;;;;;;5007854;28;20316;-65
2021/09/10 09:14:03;;;;;;;8.75;5.78;;;23.50;74.80;;;;;;5000206;28;20030;-66
2021/09/10 09:16:30;;;;;;;7.65;5.38;;;24.90;72.50;;;;;;5010197;28;20034;-66
2021/09/10 09:19:05;;;;;;;7.68;5.10;;;26.40;67.70;;;;;;5015609;28;20022;-66
2021/09/10 09:21:39;;;;;;;7.20;5.10;;;27.70;66.20;;;;;;5014144;28;20029;-66
2021/09/10 09:24:22;;;;;;;6.72;4.50;;;28.60;63.90;;;;;;5013787;28;20036;-66
2021/09/10 09:26:51;;;;;;;7.72;5.18;;;28.20;62.70;;;;;;5013630;28;20073;-65
2021/09/10 09:29:22;;;;;;;7.60;5.43;;;27.50;64.60;;;;;;5010230;28;20030;-65
2021/09/10 09:32:00;;;;;;;8.18;5.07;;;27.30;66.00;;;;;;5015860;28;20021;-66
2021/09/10 09:34:47;;;;;;;7.63;4.85;;;26.90;66.30;;;;;;5014140;28;20025;-66
2021/09/10 09:37:19;;;;;;;8.63;5.50;;;26.10;67.60;;;;;;5008467;28;20423;-66
2021/09/10 09:39:53;;;;;;;9.07;5.40;;;25.40;69.30;;;;;;5017390;28;20346;-65
2021/09/10 09:42:34;;;;;;;9.48;5.20;;;24.90;70.90;;;;;;5019107;28;20044;-65
2021/09/10 09:45:23;;;;;;;11.00;5.13;;;24.90;71.00;;;;;;5019328;28;20034;-65
2021/09/10 09:47:49;;;;;;;11.48;6.00;;;24.90;71.00;;;;;;5017449;28;20029;-66
2021/09/10 09:50:18;;;;;;;10.35;5.45;;;25.10;71.50;;;;;;5019351;28;20443;-65
2021/09/10 09:52:48;;;;;;;10.73;6.45;;;24.70;71.80;;;;;;5007527;28;20363;-66
2021/09/10 09:55:14;;;;;;;8.10;5.68;;;24.50;72.50;;;;;;5013147;28;20084;-66
2021/09/10 09:57:40;;;;;;;8.02;5.30;;;24.70;72.60;;;;;;5016401;28;20025;-66
2021/09/10 10:00:07;;;;;;;9.68;5.07;;;25.10;71.30;;;;;;5014986;28;21571;-66
2021/09/10 10:02:34;;;;;;;7.90;4.95;;;25.50;70.40;;;;;;5016996;28;20161;-66
2021/09/10 10:05:00;;;;;;;8.43;5.38;;;25.50;70.40;;;;;;5016516;28;20312;-66
2021/09/10 10:07:35;;;;;;;7.43;5.03;;;25.50;69.60;;;;;;5018180;28;20033;-66
2021/09/10 10:10:03;;;;;;;8.68;5.07;;;25.10;71.50;;;;;;5014358;28;20045;-66
2021/09/10 10:12:30;;;;;;;7.43;5.18;;;24.80;71.20;;;;;;5018732;28;20030;-66
2021/09/10 10:15:27;;;;;;;8.35;5.63;;;25.10;71.80;;;;;;5018048;28;20096;-66
2021/09/10 10:17:54;;;;;;;12.23;5.50;;;25.10;73.10;;;;;;5016064;28;20415;-66
2021/09/10 10:20:45;;;;;;;9.55;5.50;;;25.30;71.30;;;;;;5016051;28;20191;-66
2021/09/10 10:23:41;;;;;;;9.45;5.68;;;25.10;71.40;;;;;;5015619;28;20030;-66
2021/09/10 10:26:08;;;;;;;8.18;5.30;;;25.40;70.70;;;;;;5016885;28;20364;-66
2021/09/10 10:28:50;;;;;;;7.50;5.13;;;25.60;69.50;;;;;;5017751;28;20101;-66
2021/09/10 10:31:18;;;;;;;7.82;4.50;;;25.30;69.10;;;;;;5017126;28;20030;-66
2021/09/10 10:34:04;;;;;;;6.72;4.70;;;25.10;70.40;;;;;;5017084;28;20315;-66
2021/09/10 10:36:35;;;;;;;7.50;4.82;;;24.90;70.00;;;;;;5017726;28;20025;-66
2021/09/10 10:39:14;;;;;;;8.57;5.47;;;24.80;70.30;;;;;;5012593;28;20096;-66
2021/09/10 10:42:01;;;;;;;7.50;5.18;;;24.70;70.50;;;;;;5018103;28;20072;-66
2021/09/10 10:44:32;;;;;;;7.20;5.07;;;24.50;72.10;;;;;;5017357;28;20330;-66
2021/09/10 10:47:11;;;;;;;8.20;5.13;;;24.40;70.70;;;;;;5018635;28;20423;-66
2021/09/10 10:49:50;;;;;;;8.20;5.05;;;24.10;72.70;;;;;;5017556;28;20025;-66
2021/09/10 10:52:33;;;;;;;7.57;5.10;;;24.10;72.00;;;;;;5014835;28;20330;-66
2021/09/10 10:55:24;;;;;;;8.52;5.30;;;24.20;72.70;;;;;;5017614;28;20014;-66
2021/09/10 10:57:55;;;;;;;8.50;5.00;;;24.10;73.30;;;;;;5014209;28;20034;-66
2021/09/10 11:00:32;;;;;;;8.10;5.40;;;24.60;73.30;;;;;;5017454;28;20065;-66
2021/09/10 11:03:21;;;;;;;9.85;5.65;;;24.90;70.60;;;;;;5016048;28;20029;-66
2021/09/10 11:05:52;;;;;;;8.65;5.30;;;24.70;72.50;;;;;;5012441;28;20438;-66
2021/09/10 11:08:42;;;;;;;9.32;5.68;;;24.70;71.40;;;;;;5014892;28;20021;-66
2021/09/10 11:11:09;;;;;;;9.27;5.60;;;24.80;72.10;;;;;;5016280;28;20026;-66
2021/09/10 11:13:42;;;;;;;8.27;5.25;;;25.00;71.40;;;;;;5015689;28;20021;-66
2021/09/10 11:16:09;;;;;;;7.78;4.97;;;24.70;72.80;;;;;;5015789;28;20037;-66
2021/09/10 11:18:37;;;;;;;9.65;5.57;;;24.90;73.10;;;;;;5011639;28;20028;-66
2021/09/10 11:21:06;;;;;;;10.73;6.30;;;24.80;71.80;;;;;;5000292;28;20049;-66
2021/09/10 11:23:36;;;;;;;8.27;6.10;;;24.50;73.20;;;;;;5012335;28;20416;-66
2021/09/10 11:26:05;;;;;;;12.40;6.35;;;24.70;73.80;;;;;;5018083;28;20030;-66
2021/09/10 11:28:36;;;;;;;9.05;4.95;;;24.70;72.50;;;;;;5014478;28;20041;-66
2021/09/10 11:31:03;;;;;;;8.40;5.75;;;24.80;72.90;;;;;;5018099;28;20430;-66
2021/09/10 11:33:43;;;;;;;9.98;5.68;;;24.60;73.20;;;;;;5015448;28;20061;-66
2021/09/10 11:36:09;;;;;;;7.65;5.53;;;24.70;73.60;;;;;;5016591;28;20330;-65
2021/09/10 11:38:35;;;;;;;8.63;6.00;;;24.60;74.60;;;;;;5012193;28;20088;-66
2021/09/10 11:41:05;;;;;;;9.60;6.55;;;24.20;75.20;;;;;;5016677;28;20026;-66
2021/09/10 11:43:35;;;;;;;10.85;6.85;;;24.00;75.30;;;;;;5013717;28;20101;-65
2021/09/10 11:46:06;;;;;;;8.70;5.80;;;24.20;75.60;;;;;;5013871;28;20037;-66
2021/09/10 11:48:34;;;;;;;8.73;6.05;;;24.60;74.90;;;;;;5015172;28;20014;-65
2021/09/10 11:51:05;;;;;;;9.25;6.85;;;24.70;73.60;;;;;;5015184;28;20026;-65
2021/09/10 11:53:34;;;;;;;8.38;5.80;;;24.60;73.40;;;;;;5006519;28;20382;-66
2021/09/10 11:56:09;;;;;;;10.52;6.63;;;24.70;74.80;;;;;;5016081;28;20030;-66
2021/09/10 11:58:41;;;;;;;9.68;6.15;;;25.20;73.70;;;;;;5014081;28;20017;-66
2021/09/10 12:01:37;;;;;;;9.90;6.65;;;25.50;71.70;;;;;;5013140;28;20030;-66
2021/09/10 12:04:24;;;;;;;10.32;6.75;;;25.00;72.60;;;;;;5016031;28;20236;-66
2021/09/10 12:06:52;;;;;;;10.20;6.53;;;24.80;73.50;;;;;;5005186;28;20046;-66
2021/09/10 12:09:21;;;;;;;9.43;6.78;;;24.90;73.50;;;;;;5013702;28;20030;-65
2021/09/10 12:11:59;;;;;;;12.18;7.38;;;25.00;73.20;;;;;;5015712;28;20030;-65
2021/09/10 12:14:39;;;;;;;9.63;6.63;;;24.80;74.00;;;;;;5016665;28;20356;-66
2021/09/10 12:17:28;;;;;;;8.48;6.32;;;24.70;74.30;;;;;;5013129;28;20113;-66
2021/09/10 12:20:05;;;;;;;10.50;7.22;;;24.50;75.20;;;;;;5010695;28;20022;-66
2021/09/10 12:22:52;;;;;;;9.68;6.70;;;24.50;75.90;;;;;;5014201;28;20037;-66
2021/09/10 12:25:28;;;;;;;9.70;6.70;;;24.50;75.20;;;;;;5014999;28;20053;-66
2021/09/10 12:28:17;;;;;;;8.98;6.68;;;24.60;76.00;;;;;;5013463;28;20087;-66
2021/09/10 12:30:58;;;;;;;10.48;6.78;;;24.70;76.30;;;;;;5012248;28;20153;-66
2021/09/10 12:33:26;;;;;;;11.00;7.00;;;24.70;75.20;;;;;;5010988;28;20026;-66
2021/09/10 12:35:59;;;;;;;11.57;7.03;;;24.50;75.60;;;;;;5015358;28;20415;-66
2021/09/10 12:38:31;;;;;;;10.57;7.07;;;24.30;75.90;;;;;;4999003;28;20034;-66
2021/09/10 12:40:58;;;;;;;9.85;6.80;;;24.20;75.80;;;;;;5011065;28;20030;-67
2021/09/10 12:43:24;;;;;;;9.27;6.60;;;24.00;77.40;;;;;;5012810;28;20030;-66
2021/09/10 12:45:53;;;;;;;13.32;9.90;;;23.90;77.60;;;;;;5010763;28;21074;-66
2021/09/10 12:48:20;;;;;;;12.15;7.82;;;23.40;78.70;;;;;;5007515;28;20196;-66